Paso de la Patria, Argentina
Current Conditions -  °F | °C
As of 12:00 PM on Tuesday 21 Oct 2014 (Local Time) from SARC Reporting Station
Clear Clear  
Wind Chill: 84°   Ceiling: Unl
Heat Index: 84°   Visibility: 6mi
Dew Point: 48°   Wind: 8mph
Humidity: 28%   Direction: 90°E
Pressure: 30.09"   Gusts: NA
Location:  27.32°S, 58.58°W
Report Text: SARC 211500Z 09007KT CAVOK 29/09 Q1019
Loading
Personal Weather Stations






























Interactive Weather Map
Tropical Storm Tracking
New forecast layout! Learn more

10-Day Weather Forecast

Advertisements
Track Severe Weather on mobile